Time;durP1;ratioP1;P1;durP2;ratioP2;P2;SDS_P1;SDS_P2;PMS_P1;PMS_P2;Temp;Humidity;BMP_temperature;BMP_pressure;BME280_temperature;BME280_humidity;BME280_pressure;Samples;Min_cycle;Max_cycle;Signal;HPM_P1;HPM_P2
2022/11/04 00:01:24;;;;;;;10.75;7.50;;;;;;;0.36;63.55;99889.50;5069211;28;20011;-59
2022/11/04 00:03:51;;;;;;;14.18;8.45;;;;;;;0.32;64.36;99887.03;5035341;28;20451;-63
2022/11/04 00:06:17;;;;;;;14.00;8.80;;;;;;;0.25;64.22;99886.44;5047134;28;20464;-56
2022/11/04 00:08:47;;;;;;;14.05;8.60;;;;;;;0.35;64.42;99892.19;5049044;28;20036;-56
2022/11/04 00:13:56;;;;;;;15.20;8.40;;;;;;;0.43;64.43;99885.72;5038634;28;20098;-58
2022/11/04 00:19:05;;;;;;;11.15;7.63;;;;;;;0.55;63.68;99892.28;5053213;28;20090;-58
2022/11/04 00:29:43;;;;;;;12.45;8.10;;;;;;;0.67;63.41;99882.22;5052810;28;20072;-58
2022/11/04 00:34:52;;;;;;;14.07;8.25;;;;;;;0.50;63.37;99867.06;5038236;28;20034;-62
2022/11/04 00:37:17;;;;;;;13.88;8.45;;;;;;;0.65;63.55;99879.63;5032632;28;20033;-58
2022/11/04 00:39:43;;;;;;;16.98;8.75;;;;;;;0.59;63.94;99882.50;5031755;28;20026;-60
2022/11/04 00:42:08;;;;;;;14.70;8.60;;;;;;;0.54;64.14;99874.78;5032798;28;20435;-59
2022/11/04 00:44:34;;;;;;;14.25;8.68;;;;;;;0.41;64.20;99870.91;5032630;28;20048;-59
2022/11/04 00:46:59;;;;;;;16.33;8.80;;;;;;;0.30;64.95;99879.22;5031893;28;20408;-58
2022/11/04 00:49:24;;;;;;;14.35;8.38;;;;;;;0.22;65.11;99882.13;5032535;28;20030;-59
2022/11/04 00:51:50;;;;;;;14.60;8.15;;;;;;;0.18;64.93;99885.78;5033172;28;20025;-56
2022/11/04 00:54:15;;;;;;;15.75;8.52;;;;;;;0.14;65.19;99879.75;5040871;28;20041;-57
2022/11/04 00:56:41;;;;;;;14.00;7.93;;;;;;;0.22;65.04;99878.63;5051626;28;20110;-56
2022/11/04 00:59:06;;;;;;;14.43;7.95;;;;;;;0.24;64.56;99863.63;5052542;28;20025;-56
2022/11/04 01:01:32;;;;;;;13.18;8.10;;;;;;;0.28;64.29;99875.78;5068135;28;20052;-56
2022/11/04 01:03:57;;;;;;;11.25;7.75;;;;;;;0.13;64.29;99846.44;5052484;28;20033;-57
2022/11/04 01:06:25;;;;;;;12.18;7.70;;;;;;;0.31;64.25;99864.25;5032739;28;20049;-56
2022/11/04 01:09:02;;;;;;;11.57;7.82;;;;;;;0.36;64.36;99868.44;5032954;28;20064;-56
2022/11/04 01:11:28;;;;;;;11.80;7.40;;;;;;;0.35;64.09;99871.13;5031386;28;20029;-53
2022/11/04 01:13:54;;;;;;;13.38;8.50;;;;;;;0.30;64.24;99876.56;5031980;28;20368;-53
2022/11/04 01:16:20;;;;;;;12.30;8.18;;;;;;;0.31;64.03;99867.75;5032816;28;20030;-55
2022/11/04 01:18:45;;;;;;;14.30;7.90;;;;;;;0.22;63.73;99844.38;5032066;28;20448;-56
2022/11/04 01:21:13;;;;;;;12.50;8.20;;;;;;;0.35;64.16;99856.19;5032293;28;20072;-56
2022/11/04 01:23:40;;;;;;;16.67;9.07;;;;;;;0.35;63.94;99866.72;5031236;28;20356;-53
2022/11/04 01:26:08;;;;;;;13.90;7.80;;;;;;;0.36;64.42;99865.81;5032416;28;20341;-61
2022/11/04 01:28:34;;;;;;;15.63;9.02;;;;;;;0.42;64.21;99860.28;5032201;28;20571;-56
2022/11/04 01:31:05;;;;;;;16.55;9.52;;;;;;;0.49;64.13;99862.72;5031088;28;20033;-57
2022/11/04 01:33:30;;;;;;;15.10;8.75;;;;;;;0.49;64.28;99862.72;5031585;28;20032;-59
2022/11/04 01:35:59;;;;;;;14.90;8.75;;;;;;;0.55;63.94;99873.84;5032335;28;20021;-60
2022/11/04 01:38:24;;;;;;;16.73;8.98;;;;;;;0.35;64.25;99835.13;5033830;28;20045;-52
2022/11/04 01:40:49;;;;;;;15.10;9.25;;;;;;;0.55;64.07;99873.00;5033321;28;20342;-57
2022/11/04 01:43:18;;;;;;;15.25;8.73;;;;;;;0.61;63.79;99874.56;5032602;28;20042;-61
2022/11/04 01:45:50;;;;;;;16.35;9.45;;;;;;;0.62;63.97;99874.47;5052726;28;20029;-61
2022/11/04 01:48:26;;;;;;;15.75;8.88;;;;;;;0.59;63.96;99868.47;5051798;28;20075;-62
2022/11/04 01:50:52;;;;;;;14.43;8.38;;;;;;;0.54;63.81;99874.78;5054580;28;20028;-63
2022/11/04 01:53:25;;;;;;;15.30;8.18;;;;;;;0.40;63.55;99869.19;5044673;28;20025;-62
2022/11/04 01:55:55;;;;;;;16.67;8.48;;;;;;;0.34;63.75;99875.53;5055879;28;20041;-62
2022/11/04 01:58:24;;;;;;;13.68;7.75;;;;;;;0.32;63.59;99865.97;5049107;28;20116;-61
2022/11/04 02:00:50;;;;;;;13.73;8.07;;;;;;;0.36;63.96;99870.19;5049211;28;20029;-62
2022/11/04 02:03:25;;;;;;;11.45;8.10;;;;;;;0.41;63.74;99870.91;5070625;28;20098;-62
2022/11/04 02:05:52;;;;;;;13.98;7.88;;;;;;;0.27;63.57;99866.16;5055764;28;20356;-61
2022/11/04 02:08:18;;;;;;;12.13;7.65;;;;;;;0.08;63.60;99847.53;5054448;28;20068;-61
2022/11/04 02:10:56;;;;;;;13.00;8.43;;;;;;;0.08;63.68;99848.41;5050247;28;20064;-61
2022/11/04 02:13:22;;;;;;;12.18;7.80;;;;;;;0.19;63.83;99865.56;5035674;28;20029;-61
2022/11/04 02:16:13;;;;;;;12.93;8.07;;;;;;;0.30;63.80;99879.22;5020961;28;20128;-61
2022/11/04 02:18:47;;;;;;;13.95;8.43;;;;;;;0.31;63.96;99870.38;5035523;28;20041;-62
2022/11/04 02:21:28;;;;;;;16.75;8.23;;;;;;;0.36;63.90;99867.56;5050936;28;20435;-61
2022/11/04 02:24:03;;;;;;;14.10;8.20;;;;;;;0.34;63.58;99867.63;5050934;28;20029;-61
2022/11/04 02:27:14;;;;;;;15.77;8.85;;;;;;;0.42;63.64;99862.09;5048796;28;20030;-67
2022/11/04 02:29:55;;;;;;;14.10;8.23;;;;;;;0.46;63.50;99873.34;5033866;28;20076;-62
2022/11/04 02:32:40;;;;;;;14.00;8.98;;;;;;;0.39;63.73;99868.31;5034953;28;20123;-60
2022/11/04 02:35:25;;;;;;;19.08;9.45;;;;;;;0.38;63.65;99871.03;5034938;28;20420;-66
2022/11/04 02:38:30;;;;;;;19.42;9.43;;;;;;;0.36;63.77;99860.53;5033697;28;20033;-59
2022/11/04 02:40:55;;;;;;;19.00;9.52;;;;;;;0.31;63.32;99870.38;5022208;28;20123;-60
2022/11/04 02:43:30;;;;;;;20.05;10.05;;;;;;;0.33;63.87;99868.56;5053457;28;20190;-53
2022/11/04 02:46:05;;;;;;;16.77;9.05;;;;;;;0.39;63.82;99878.84;5052629;28;20037;-57
2022/11/04 02:48:37;;;;;;;14.43;8.55;;;;;;;0.36;63.41;99868.44;5034537;28;20505;-58
2022/11/04 02:51:07;;;;;;;13.77;8.32;;;;;;;0.39;63.29;99873.59;5034630;28;20116;-60
2022/11/04 02:53:56;;;;;;;15.48;8.27;;;;;;;0.45;63.43;99871.63;5035923;28;20026;-59
2022/11/04 02:56:23;;;;;;;16.73;8.57;;;;;;;0.38;63.15;99869.22;5023746;28;20041;-56
2022/11/04 02:58:57;;;;;;;16.13;9.00;;;;;;;0.42;63.00;99870.81;5033188;28;20033;-61
2022/11/04 03:01:29;;;;;;;14.20;8.30;;;;;;;0.40;63.26;99869.19;5044266;28;20029;-54
2022/11/04 03:04:07;;;;;;;17.65;9.45;;;;;;;0.36;62.96;99868.44;5053191;28;20063;-58
2022/11/04 03:06:34;;;;;;;16.35;8.85;;;;;;;0.30;62.97;99870.44;5061268;28;20079;-59
2022/11/04 03:09:01;;;;;;;17.65;8.93;;;;;;;0.33;63.36;99872.94;5034443;28;20030;-56
2022/11/04 03:11:27;;;;;;;15.75;8.85;;;;;;;0.23;62.91;99875.06;5033616;28;20079;-58
2022/11/04 03:14:05;;;;;;;15.00;9.20;;;;;;;0.27;63.22;99877.53;5049913;28;20041;-58
2022/11/04 03:16:41;;;;;;;15.75;9.02;;;;;;;0.05;63.56;99842.38;5034377;28;20033;-57
2022/11/04 03:19:28;;;;;;;17.38;8.70;;;;;;;0.26;63.53;99880.25;5035285;28;20025;-55
2022/11/04 03:22:01;;;;;;;14.93;8.80;;;;;;;0.21;63.48;99879.53;5034235;28;20052;-58
2022/11/04 03:24:27;;;;;;;14.13;9.13;;;;;;;0.19;63.52;99865.56;5034226;28;20029;-56
2022/11/04 03:27:15;;;;;;;15.63;9.18;;;;;;;0.22;63.70;99865.44;5034011;28;20040;-57
2022/11/04 03:29:56;;;;;;;22.42;9.60;;;;;;;0.20;63.86;99873.41;5035157;28;20371;-58
2022/11/04 03:32:36;;;;;;;19.80;10.57;;;;;;;0.11;63.51;99871.97;5034009;28;20807;-58
2022/11/04 03:35:01;;;;;;;21.25;11.10;;;;;;;-0.12;64.04;99848.28;5033836;28;20033;-56
2022/11/04 03:37:26;;;;;;;22.42;10.40;;;;;;;0.02;64.40;99880.22;5034071;28;20033;-57
2022/11/04 03:39:52;;;;;;;20.13;10.60;;;;;;;-0.19;64.04;99848.50;5040163;28;20039;-57
2022/11/04 03:42:19;;;;;;;21.77;11.18;;;;;;;-0.03;64.45;99880.38;5052567;28;20469;-57
2022/11/04 03:44:47;;;;;;;20.63;10.38;;;;;;;-0.09;64.63;99872.72;5047264;28;20338;-55
2022/11/04 03:47:12;;;;;;;22.00;10.40;;;;;;;-0.11;64.33;99871.03;5052480;28;20138;-55
2022/11/04 03:49:38;;;;;;;16.85;9.77;;;;;;;-0.04;64.37;99880.41;5033736;28;20055;-57
2022/11/04 03:52:03;;;;;;;18.85;10.02;;;;;;;-0.04;64.46;99877.78;5049382;28;20034;-62
2022/11/04 03:54:34;;;;;;;18.23;8.90;;;;;;;-0.02;64.46;99884.72;5033755;28;20055;-59
2022/11/04 03:57:19;;;;;;;19.10;10.25;;;;;;;0.01;64.17;99878.50;5049303;28;20033;-55
2022/11/04 03:59:50;;;;;;;16.27;9.50;;;;;;;0.05;63.85;99884.50;5039942;28;20060;-57
2022/11/04 04:02:26;;;;;;;14.52;8.88;;;;;;;0.01;63.59;99889.03;5053333;28;20080;-60
2022/11/04 04:05:04;;;;;;;14.00;8.45;;;;;;;-0.01;63.95;99883.81;5052090;28;20094;-61
2022/11/04 04:07:44;;;;;;;15.30;8.98;;;;;;;0.09;64.04;99880.84;5051808;28;20116;-61
2022/11/04 04:10:39;;;;;;;16.35;8.15;;;;;;;0.09;63.32;99879.09;5051577;28;20039;-58
2022/11/04 04:13:14;;;;;;;17.38;8.55;;;;;;;0.10;63.06;99878.16;5033203;28;20090;-63
2022/11/04 04:15:55;;;;;;;11.95;7.45;;;;;;;0.02;63.33;99869.69;5032182;28;20087;-53
2022/11/04 04:18:55;;;;;;;12.45;7.85;;;;;;;0.14;63.49;99878.91;5032060;28;20045;-55
2022/11/04 04:21:27;;;;;;;15.00;8.10;;;;;;;0.20;63.19;99885.72;5029561;28;20045;-59
2022/11/04 04:29:28;;;;;;;6.57;3.80;;;;;;;0.19;62.25;99889.25;5032877;28;20452;-55
2022/11/04 04:31:57;;;;;;;7.85;4.53;;;;;;;0.19;62.26;99892.78;5033002;28;20025;-59
2022/11/04 04:34:31;;;;;;;7.60;4.28;;;;;;;0.21;62.36;99877.78;5031810;28;20083;-60
2022/11/04 04:37:08;;;;;;;7.22;4.50;;;;;;;0.29;62.53;99893.28;5031578;28;20033;-58
2022/11/04 04:45:20;;;;;;;8.70;4.15;;;;;;;0.28;62.50;99891.56;5052548;28;20037;-59
2022/11/04 04:47:46;;;;;;;7.30;4.10;;;;;;;0.25;62.45;99886.44;5052309;28;20040;-54
2022/11/04 04:50:18;;;;;;;7.07;3.70;;;;;;;0.27;62.47;99895.13;5052378;28;20471;-61
2022/11/04 04:52:46;;;;;;;8.07;3.63;;;;;;;0.14;62.28;99879.75;5048563;28;20040;-57
2022/11/04 04:55:12;;;;;;;6.88;3.50;;;;;;;0.08;62.69;99880.00;5050602;28;20029;-56
2022/11/04 04:57:38;;;;;;;8.02;4.20;;;;;;;0.20;62.48;99893.63;5052358;28;20044;-57
2022/11/04 05:00:06;;;;;;;6.78;3.97;;;;;;;0.23;62.32;99901.41;5052019;28;20032;-56
2022/11/04 05:02:31;;;;;;;6.10;3.25;;;;;;;0.19;62.02;99892.78;5051873;28;20033;-58
2022/11/04 05:04:58;;;;;;;5.40;3.42;;;;;;;0.25;62.10;99902.22;5052217;28;20043;-59
2022/11/04 05:07:24;;;;;;;6.50;3.67;;;;;;;0.26;61.99;99898.69;5051480;28;20036;-58
2022/11/04 05:09:49;;;;;;;7.82;4.03;;;;;;;0.37;61.97;99896.50;5051210;28;20123;-57
2022/11/04 05:12:15;;;;;;;8.07;4.35;;;;;;;0.44;61.87;99905.03;5033045;28;20487;-53
2022/11/04 05:14:41;;;;;;;10.05;4.63;;;;;;;0.47;61.62;99902.28;5031519;28;20048;-55
2022/11/04 05:17:06;;;;;;;8.90;4.50;;;;;;;0.36;61.72;99878.09;5048400;28;20022;-55
2022/11/04 05:19:31;;;;;;;6.00;4.20;;;;;;;0.46;61.84;99903.19;5031446;28;20025;-59
2022/11/04 05:21:57;;;;;;;6.53;4.20;;;;;;;0.46;61.77;99907.59;5036021;28;20052;-58
2022/11/04 05:24:22;;;;;;;9.88;4.45;;;;;;;0.33;61.66;99873.81;5035322;28;20091;-58
2022/11/04 05:26:48;;;;;;;10.52;5.00;;;;;;;0.42;61.51;99888.44;5018975;28;20435;-54
2022/11/04 05:29:13;;;;;;;7.63;4.55;;;;;;;0.52;61.60;99897.69;5036104;28;20037;-55
2022/11/04 05:31:39;;;;;;;10.45;4.50;;;;;;;0.38;61.85;99865.75;5036384;28;20033;-61
2022/11/04 05:34:05;;;;;;;10.00;4.40;;;;;;;0.60;61.40;99894.75;5036688;28;20452;-59
2022/11/04 05:36:32;;;;;;;9.20;4.18;;;;;;;0.65;61.13;99905.97;5036242;28;20068;-55
2022/11/04 05:38:58;;;;;;;10.52;5.25;;;;;;;0.62;61.08;99900.84;5038031;28;20051;-60
2022/11/04 05:41:26;;;;;;;9.15;5.40;;;;;;;0.71;61.43;99911.00;5054779;28;20135;-56
2022/11/04 05:43:53;;;;;;;10.32;5.38;;;;;;;0.63;61.03;99892.00;5053419;28;20060;-54
2022/11/04 05:46:18;;;;;;;9.98;5.10;;;;;;;0.83;60.92;99903.56;5035760;28;20121;-54
2022/11/04 05:48:44;;;;;;;8.23;4.82;;;;;;;0.85;60.47;99910.50;5035663;28;20116;-56
2022/11/04 05:51:16;;;;;;;8.40;5.10;;;;;;;0.92;60.77;99912.88;5035086;28;20030;-61
2022/11/04 05:53:42;;;;;;;9.68;5.85;;;;;;;0.75;60.21;99887.19;5034687;28;20037;-59
2022/11/04 05:56:07;;;;;;;7.95;5.00;;;;;;;0.92;60.72;99910.25;5035905;28;20368;-54
2022/11/04 05:58:33;;;;;;;9.07;4.95;;;;;;;0.83;60.08;99903.56;5047379;28;20029;-56
2022/11/04 06:01:28;;;;;;;9.32;5.28;;;;;;;0.99;60.70;99922.25;5054493;28;20132;-57
2022/11/04 06:03:54;;;;;;;8.50;4.95;;;;;;;0.90;60.59;99910.31;5055542;28;20044;-57
2022/11/04 06:06:22;;;;;;;10.13;5.00;;;;;;;0.92;60.36;99911.09;5055551;28;20512;-56
2022/11/04 06:08:48;;;;;;;8.98;5.38;;;;;;;0.75;60.70;99888.03;5052583;28;20044;-59
2022/11/04 06:11:14;;;;;;;9.32;5.72;;;;;;;0.98;60.27;99916.16;5035378;28;20044;-58
2022/11/04 06:13:39;;;;;;;8.35;5.10;;;;;;;1.05;60.28;99911.47;5034424;28;20029;-61
2022/11/04 06:16:05;;;;;;;9.85;6.38;;;;;;;1.11;60.11;99919.16;5035104;28;20128;-62
2022/11/04 06:18:30;;;;;;;9.45;5.40;;;;;;;1.17;59.52;99920.66;5048273;28;20037;-61
2022/11/04 06:21:14;;;;;;;8.52;5.63;;;;;;;1.33;59.93;99917.41;5035031;28;20041;-70
2022/11/04 06:23:41;;;;;;;8.95;5.30;;;;;;;1.31;59.44;99929.81;5034433;28;20040;-63
2022/11/04 06:26:07;;;;;;;9.15;5.50;;;;;;;1.27;60.01;99924.66;5035133;28;20049;-61
2022/11/04 06:28:33;;;;;;;14.02;5.82;;;;;;;1.35;59.51;99926.13;5035059;28;20419;-75
2022/11/04 06:31:00;;;;;;;9.73;6.00;;;;;;;1.27;59.72;99907.97;5034395;28;20040;-62
2022/11/04 06:33:27;;;;;;;8.95;5.55;;;;;;;1.40;59.62;99929.44;5034269;28;20076;-63
2022/11/04 06:36:00;;;;;;;14.18;5.55;;;;;;;1.39;59.25;99919.78;5034829;28;20041;-64
2022/11/04 06:38:28;;;;;;;10.88;5.47;;;;;;;1.36;59.57;99925.19;5044403;28;20032;-57
2022/11/04 06:40:53;;;;;;;12.50;6.60;;;;;;;1.27;59.67;99929.94;5054435;28;20040;-68
2022/11/04 06:43:19;;;;;;;10.93;6.15;;;;;;;1.28;60.00;99936.06;5054096;28;20045;-60
2022/11/04 06:45:52;;;;;;;15.50;6.95;;;;;;;1.28;60.48;99931.66;5054568;28;20043;-63
2022/11/04 06:48:17;;;;;;;14.07;6.28;;;;;;;1.23;60.33;99933.63;5052130;28;20056;-62
2022/11/04 06:50:42;;;;;;;15.00;6.10;;;;;;;1.23;60.80;99930.13;5050386;28;20120;-61
2022/11/04 06:53:08;;;;;;;20.98;6.78;;;;;;;1.25;60.62;99930.91;5038900;28;20144;-64
2022/11/04 06:55:33;;;;;;;10.13;5.82;;;;;;;1.29;60.82;99932.50;5053227;28;20394;-62
2022/11/04 06:57:59;;;;;;;10.68;5.85;;;;;;;1.39;60.52;99933.00;5069722;28;20028;-62
2022/11/04 07:00:24;;;;;;;12.50;6.03;;;;;;;1.48;60.34;99937.91;5036745;28;20488;-62
2022/11/04 07:02:49;;;;;;;10.98;5.78;;;;;;;1.52;60.78;99944.78;5034624;28;20041;-63
2022/11/04 07:05:16;;;;;;;15.23;5.32;;;;;;;1.60;60.37;99948.88;5049762;28;20033;-63
2022/11/04 07:07:41;;;;;;;13.48;5.60;;;;;;;1.66;60.17;99949.47;5049935;28;20049;-61
2022/11/04 07:10:08;;;;;;;9.25;5.43;;;;;;;1.74;59.90;99945.66;5033513;28;20021;-62
2022/11/04 07:12:33;;;;;;;10.15;5.10;;;;;;;1.61;60.33;99919.78;5034580;28;20068;-64
2022/11/04 07:14:59;;;;;;;15.98;5.07;;;;;;;1.86;59.74;99945.97;5034186;28;20034;-65
2022/11/04 07:17:24;;;;;;;9.35;5.03;;;;;;;1.86;59.73;99948.63;5050790;28;20025;-61
2022/11/04 07:19:49;;;;;;;10.10;4.88;;;;;;;1.75;59.89;99944.72;5053062;28;20029;-67
2022/11/04 07:22:15;;;;;;;12.57;5.28;;;;;;;1.64;60.23;99947.81;5053265;28;20032;-67
2022/11/04 07:24:40;;;;;;;13.98;5.03;;;;;;;1.52;60.47;99955.31;5041044;28;20033;-64
2022/11/04 07:27:06;;;;;;;10.23;4.38;;;;;;;1.53;61.14;99959.69;5034196;28;20049;-67
2022/11/04 07:29:32;;;;;;;10.20;4.47;;;;;;;1.55;60.86;99955.19;5033807;28;20068;-66
2022/11/04 07:31:58;;;;;;;10.55;4.53;;;;;;;1.58;60.47;99951.59;5033902;28;20076;-66
2022/11/04 07:34:23;;;;;;;9.85;4.90;;;;;;;1.57;60.98;99947.22;5033719;28;20044;-65
2022/11/04 07:36:49;;;;;;;9.65;5.10;;;;;;;1.58;60.64;99946.31;5061501;28;20104;-65
2022/11/04 07:39:14;;;;;;;13.50;4.80;;;;;;;1.58;60.61;99947.16;5053981;28;20049;-64
2022/11/04 07:41:40;;;;;;;16.98;5.10;;;;;;;1.58;60.72;99948.94;5053831;28;20086;-65
2022/11/04 07:44:06;;;;;;;12.23;5.43;;;;;;;1.57;60.84;99948.06;5052804;28;20066;-64
2022/11/04 07:46:32;;;;;;;10.85;4.45;;;;;;;1.66;60.94;99953.88;5043972;28;20041;-65
2022/11/04 07:48:58;;;;;;;12.13;5.25;;;;;;;1.68;60.73;99949.38;5042420;28;20112;-64
2022/11/04 07:51:24;;;;;;;15.50;5.20;;;;;;;1.76;60.58;99947.31;5048686;28;20112;-66
2022/11/04 07:53:50;;;;;;;11.95;4.43;;;;;;;1.66;60.40;99923.09;5053459;28;20040;-66
2022/11/04 07:56:17;;;;;;;13.43;5.13;;;;;;;1.75;60.36;99947.34;5052540;28;20037;-65
2022/11/04 07:58:43;;;;;;;16.55;5.30;;;;;;;1.75;60.28;99945.59;5037672;28;20040;-66
2022/11/04 08:01:13;;;;;;;18.08;5.90;;;;;;;1.74;61.22;99943.00;5048542;28;20029;-66
2022/11/04 08:03:38;;;;;;;14.05;5.55;;;;;;;1.73;60.87;99944.81;5033026;28;20448;-65
2022/11/04 08:06:06;;;;;;;13.75;5.00;;;;;;;1.75;61.16;99956.16;5031980;28;20025;-65
2022/11/04 08:08:32;;;;;;;10.20;5.03;;;;;;;1.68;61.55;99954.66;5031648;28;20033;-66
2022/11/04 08:11:03;;;;;;;12.98;5.20;;;;;;;1.71;61.83;99954.56;5032868;28;20064;-66
2022/11/04 08:13:32;;;;;;;13.75;5.57;;;;;;;1.78;61.68;99957.78;5032271;28;20033;-65
2022/11/04 08:16:06;;;;;;;11.30;6.13;;;;;;;1.80;61.57;99959.44;5031631;28;20086;-66
2022/11/04 08:18:32;;;;;;;13.60;6.63;;;;;;;1.71;61.47;99959.84;5015503;28;20337;-65
2022/11/04 08:20:58;;;;;;;18.55;7.15;;;;;;;1.60;62.00;99947.09;5031840;28;20029;-67
2022/11/04 08:23:24;;;;;;;11.27;6.20;;;;;;;1.60;62.01;99944.47;5032535;28;20029;-65
2022/11/04 08:25:49;;;;;;;9.95;5.95;;;;;;;1.69;62.07;99943.22;5032476;28;20048;-66
2022/11/04 08:28:18;;;;;;;11.00;5.65;;;;;;;1.77;62.16;99945.50;5032983;28;20118;-67
2022/11/04 08:31:21;;;;;;;15.23;5.78;;;;;;;1.98;61.37;99946.41;5031883;28;20120;-66
2022/11/04 08:33:46;;;;;;;10.75;5.43;;;;;;;1.97;61.26;99939.41;5011935;28;20052;-66
2022/11/04 08:36:39;;;;;;;11.07;5.93;;;;;;;2.18;61.12;99937.59;5031386;28;20033;-66
2022/11/04 08:39:06;;;;;;;10.55;5.38;;;;;;;2.13;61.18;99945.72;5030712;28;20041;-65
2022/11/04 08:41:33;;;;;;;11.68;6.00;;;;;;;2.11;60.66;99933.53;5032485;28;20116;-67
2022/11/04 08:43:59;;;;;;;14.25;5.32;;;;;;;2.20;59.98;99933.09;5031218;28;20045;-66
2022/11/04 08:46:31;;;;;;;9.98;5.13;;;;;;;2.33;60.25;99937.84;5031220;28;20037;-65
2022/11/04 08:48:57;;;;;;;11.32;4.97;;;;;;;2.32;59.47;99938.78;5032863;28;20033;-67
2022/11/04 08:51:25;;;;;;;11.60;5.18;;;;;;;2.35;60.14;99936.84;5031344;28;20021;-66
2022/11/04 08:53:51;;;;;;;13.18;5.57;;;;;;;2.36;59.97;99933.28;5032466;28;20097;-66
2022/11/04 08:56:22;;;;;;;10.75;5.45;;;;;;;2.30;60.00;99936.19;5031252;28;20061;-66
2022/11/04 08:58:47;;;;;;;14.07;5.93;;;;;;;2.26;60.53;99938.09;5032629;28;20033;-66
2022/11/04 09:01:13;;;;;;;13.82;6.07;;;;;;;2.34;60.42;99942.22;5032042;28;20083;-66
2022/11/04 09:03:40;;;;;;;16.58;6.38;;;;;;;2.41;60.05;99935.72;5014749;28;20406;-67
2022/11/04 09:06:08;;;;;;;10.75;6.32;;;;;;;2.40;59.49;99944.56;5032368;28;20162;-65
2022/11/04 09:08:33;;;;;;;15.32;6.32;;;;;;;2.41;60.34;99933.94;5031366;28;20033;-67
2022/11/04 09:11:00;;;;;;;10.73;6.00;;;;;;;2.51;60.13;99938.81;5030921;28;20033;-66
2022/11/04 09:13:26;;;;;;;18.27;6.55;;;;;;;2.30;59.75;99909.78;5031165;28;20033;-66
2022/11/04 09:15:52;;;;;;;12.27;6.30;;;;;;;2.50;60.46;99939.72;5032023;28;20025;-66
2022/11/04 09:18:18;;;;;;;13.68;7.55;;;;;;;2.37;60.39;99934.97;5031169;28;20029;-66
2022/11/04 09:20:43;;;;;;;14.70;7.43;;;;;;;2.37;60.25;99948.19;5031852;28;20025;-66
2022/11/04 09:23:09;;;;;;;17.60;7.90;;;;;;;2.35;60.50;99939.47;5031656;28;20471;-66
2022/11/04 09:25:35;;;;;;;17.48;7.88;;;;;;;2.42;60.67;99935.66;5032183;28;20462;-66
2022/11/04 09:28:00;;;;;;;11.63;6.70;;;;;;;2.47;60.68;99937.22;5032144;28;20025;-65
2022/11/04 09:30:26;;;;;;;15.18;7.20;;;;;;;2.41;60.16;99939.22;5030781;28;20045;-67
2022/11/04 09:32:52;;;;;;;15.50;6.40;;;;;;;2.37;60.26;99932.34;5042022;28;20071;-68
2022/11/04 09:35:17;;;;;;;13.18;6.72;;;;;;;2.39;60.30;99935.78;5051082;28;20325;-68
2022/11/04 09:37:43;;;;;;;10.55;6.68;;;;;;;2.49;59.97;99941.50;5034354;28;20104;-65
2022/11/04 09:40:20;;;;;;;12.80;6.88;;;;;;;2.51;60.24;99931.72;5013993;28;20066;-65
2022/11/04 09:42:51;;;;;;;12.98;6.93;;;;;;;2.41;60.06;99902.22;5031679;28;20085;-65
2022/11/04 09:45:21;;;;;;;18.33;8.45;;;;;;;2.68;60.07;99925.69;5031190;28;20128;-67
2022/11/04 09:47:50;;;;;;;12.68;6.88;;;;;;;2.73;59.42;99936.03;5031956;28;20088;-66
2022/11/04 09:50:22;;;;;;;11.77;7.10;;;;;;;2.78;59.20;99936.69;5031118;28;20124;-67
2022/11/04 09:53:13;;;;;;;15.10;7.28;;;;;;;2.85;59.75;99932.81;5031057;28;20048;-66
2022/11/04 09:55:48;;;;;;;12.93;6.97;;;;;;;2.81;59.25;99931.25;5002636;28;20049;-66
2022/11/04 09:58:14;;;;;;;11.88;6.50;;;;;;;2.67;59.13;99921.31;5030669;28;20519;-67
2022/11/04 10:00:43;;;;;;;18.40;9.50;;;;;;;2.58;59.20;99912.03;5030798;28;20140;-67
2022/11/04 10:03:47;;;;;;;14.32;8.77;;;;;;;2.77;59.71;99936.75;5030847;28;20041;-66
2022/11/04 10:06:44;;;;;;;13.27;7.60;;;;;;;2.75;59.52;99936.81;5031811;28;20037;-66
2022/11/04 10:09:37;;;;;;;10.75;6.95;;;;;;;2.74;59.31;99937.72;5034554;28;20037;-67
2022/11/04 10:12:16;;;;;;;12.30;7.22;;;;;;;2.74;59.71;99929.81;5034326;28;20349;-65
2022/11/04 10:14:41;;;;;;;14.85;7.47;;;;;;;2.69;59.06;99937.97;5034459;28;20431;-67
2022/11/04 10:17:38;;;;;;;13.85;7.78;;;;;;;2.76;59.46;99942.97;5035371;28;20037;-65
2022/11/04 10:20:42;;;;;;;14.90;7.57;;;;;;;2.84;59.73;99932.88;5020662;28;20025;-66
2022/11/04 10:23:22;;;;;;;15.57;8.80;;;;;;;2.80;59.74;99945.41;5028673;28;20052;-66
2022/11/04 10:26:05;;;;;;;14.15;8.40;;;;;;;2.84;59.66;99936.41;5034979;28;20432;-67
2022/11/04 10:28:37;;;;;;;12.88;8.75;;;;;;;2.80;59.21;99939.25;5034418;28;20422;-66
2022/11/04 10:31:04;;;;;;;15.10;8.75;;;;;;;2.69;59.58;99937.97;5017529;28;20048;-68
2022/11/04 10:33:37;;;;;;;17.60;9.40;;;;;;;2.72;59.67;99936.94;5035086;28;20029;-67
2022/11/04 10:36:06;;;;;;;17.58;9.45;;;;;;;2.78;59.78;99941.97;5033945;28;20368;-65
2022/11/04 10:38:34;;;;;;;19.05;10.50;;;;;;;2.75;59.24;99944.72;5034763;28;20455;-66
2022/11/04 10:41:00;;;;;;;18.08;9.82;;;;;;;2.65;59.84;99935.53;5034778;28;20037;-66
2022/11/04 10:43:36;;;;;;;18.42;9.63;;;;;;;2.54;59.99;99905.16;5033767;28;20057;-67
2022/11/04 10:46:05;;;;;;;17.10;9.20;;;;;;;2.75;60.24;99946.53;5033570;28;20456;-67
2022/11/04 10:48:59;;;;;;;17.83;10.30;;;;;;;2.76;60.15;99935.03;5033247;28;20040;-67
2022/11/04 10:51:25;;;;;;;21.25;9.95;;;;;;;2.59;60.51;99941.94;5029456;28;20124;-67
2022/11/04 10:53:55;;;;;;;19.27;9.27;;;;;;;2.60;60.07;99935.72;5017288;28;20129;-66
2022/11/04 10:56:27;;;;;;;17.00;9.40;;;;;;;2.64;59.98;99939.94;5033638;28;20349;-66
2022/11/04 10:58:54;;;;;;;17.63;9.90;;;;;;;2.69;60.64;99940.63;5033569;28;20037;-66
2022/11/04 11:01:33;;;;;;;19.65;10.50;;;;;;;2.74;60.05;99929.81;5034629;28;20055;-68
2022/11/04 11:04:00;;;;;;;14.55;8.93;;;;;;;2.64;60.07;99929.38;5033464;28;20083;-66
2022/11/04 11:06:31;;;;;;;15.20;9.88;;;;;;;2.68;60.44;99924.81;5034182;28;20355;-69
2022/11/04 11:09:12;;;;;;;16.42;9.73;;;;;;;2.73;60.73;99934.25;5034924;28;20094;-69
2022/11/04 11:11:46;;;;;;;23.42;10.43;;;;;;;2.90;59.86;99940.53;5033273;28;20052;-66
2022/11/04 11:14:39;;;;;;;16.65;9.45;;;;;;;3.07;60.12;99931.81;5034163;28;20457;-68
2022/11/04 11:17:14;;;;;;;23.67;11.80;;;;;;;3.06;59.65;99929.22;5030807;28;20045;-67
2022/11/04 11:20:07;;;;;;;22.87;12.40;;;;;;;3.11;59.54;99940.44;5033799;28;20518;-66
2022/11/04 11:22:37;;;;;;;23.23;11.02;;;;;;;2.94;59.18;99942.13;5032894;28;20022;-67
2022/11/04 11:25:32;;;;;;;22.80;12.90;;;;;;;2.98;59.87;99942.81;5049092;28;20099;-68
2022/11/04 11:28:00;;;;;;;20.55;11.68;;;;;;;2.85;59.77;99937.22;5032796;28;20025;-70
2022/11/04 11:30:30;;;;;;;19.65;12.50;;;;;;;2.90;59.79;99948.47;5034260;28;20112;-66
2022/11/04 11:33:06;;;;;;;30.08;14.82;;;;;;;2.91;60.29;99947.56;5033316;28;20481;-66
2022/11/04 11:35:40;;;;;;;27.73;15.23;;;;;;;2.87;59.80;99951.25;5032396;28;20053;-67
2022/11/04 11:38:17;;;;;;;24.48;13.65;;;;;;;2.64;60.65;99918.78;5032543;28;20043;-68
2022/11/04 11:40:44;;;;;;;22.58;12.60;;;;;;;2.66;60.35;99948.69;5017012;28;20029;-67
2022/11/04 11:43:24;;;;;;;21.42;11.77;;;;;;;2.67;60.80;99947.75;5032653;28;20050;-67
2022/11/04 11:45:50;;;;;;;22.02;11.18;;;;;;;2.60;60.73;99940.19;5048741;28;20049;-68
2022/11/04 11:48:43;;;;;;;21.60;10.48;;;;;;;2.67;60.52;99942.47;5032388;28;20533;-66
2022/11/04 11:51:13;;;;;;;18.85;10.65;;;;;;;2.60;60.47;99941.00;5029221;28;20052;-67
2022/11/04 11:53:44;;;;;;;24.52;10.65;;;;;;;2.59;60.81;99957.81;5033265;28;20151;-67
2022/11/04 11:56:29;;;;;;;17.30;10.57;;;;;;;2.58;60.89;99958.72;5033163;28;20052;-67
2022/11/04 11:59:14;;;;;;;23.83;10.35;;;;;;;2.60;61.02;99967.44;5032504;28;20041;-67
2022/11/04 12:01:49;;;;;;;17.90;9.50;;;;;;;2.63;60.92;99961.19;5033000;28;20040;-68
2022/11/04 12:04:16;;;;;;;18.80;10.55;;;;;;;2.37;60.92;99921.78;5015926;28;20034;-67
2022/11/04 12:07:06;;;;;;;23.17;10.75;;;;;;;2.75;60.72;99968.53;5031791;28;20025;-67
2022/11/04 12:09:56;;;;;;;21.75;10.50;;;;;;;2.72;60.76;99966.91;5033162;28;20040;-67
2022/11/04 12:12:48;;;;;;;21.08;10.90;;;;;;;2.74;60.72;99966.81;5032979;28;20044;-67
2022/11/04 12:15:55;;;;;;;18.95;9.10;;;;;;;2.74;61.24;99966.81;5031912;28;20037;-67
2022/11/04 12:18:38;;;;;;;17.40;9.05;;;;;;;2.77;60.32;99968.47;5032478;28;20049;-67
2022/11/04 12:21:20;;;;;;;16.88;9.07;;;;;;;2.68;60.45;99965.34;5031787;28;20091;-67